createdAt,value
2022-11-28T00:00:57.251Z,24.60
2022-11-28T00:03:25.801Z,27.83
2022-11-28T00:05:53.658Z,26.77
2022-11-28T00:08:22.052Z,31.63
2022-11-28T00:10:51.008Z,33.63
2022-11-28T00:13:19.092Z,31.73
2022-11-28T00:15:46.985Z,29.60
2022-11-28T00:18:14.728Z,24.57
2022-11-28T00:20:42.380Z,29.10
2022-11-28T00:23:10.742Z,26.97
2022-11-28T00:25:38.404Z,27.87
2022-11-28T00:28:07.587Z,30.10
2022-11-28T00:30:37.134Z,32.00
2022-11-28T00:33:05.089Z,29.10
2022-11-28T00:35:32.703Z,29.47
2022-11-28T00:38:00.757Z,29.57
2022-11-28T00:40:28.363Z,26.77
2022-11-28T00:42:56.009Z,29.63
2022-11-28T00:45:24.995Z,30.33
2022-11-28T00:47:52.682Z,29.50
2022-11-28T00:50:20.301Z,31.70
2022-11-28T00:52:48.066Z,30.57
2022-11-28T00:55:15.897Z,27.80
2022-11-28T00:57:43.751Z,30.47
2022-11-28T01:00:12.083Z,31.03
2022-11-28T01:02:41.374Z,32.77
2022-11-28T01:05:09.605Z,32.13
2022-11-28T01:07:42.346Z,37.23
2022-11-28T01:10:11.738Z,32.20
2022-11-28T01:12:40.063Z,29.60
2022-11-28T01:15:09.008Z,37.77
2022-11-28T01:17:36.717Z,32.97
2022-11-28T01:20:07.257Z,38.10
2022-11-28T01:22:35.665Z,33.67
2022-11-28T01:25:03.320Z,32.03
2022-11-28T01:27:33.173Z,33.27
2022-11-28T01:30:01.233Z,32.50
2022-11-28T01:32:29.037Z,33.57
2022-11-28T01:34:57.881Z,36.73
2022-11-28T01:37:27.103Z,35.07
2022-11-28T01:39:54.733Z,30.53
2022-11-28T01:42:22.370Z,35.80
2022-11-28T01:45:06.118Z,31.60
2022-11-28T01:47:34.505Z,32.57
2022-11-28T01:50:02.322Z,33.43
2022-11-28T01:52:31.952Z,34.10
2022-11-28T01:55:01.117Z,37.73
2022-11-28T01:57:29.077Z,31.20
2022-11-28T01:59:58.407Z,33.17
2022-11-28T02:02:28.000Z,34.37
2022-11-28T02:04:55.995Z,32.67
2022-11-28T02:07:23.776Z,28.43
2022-11-28T02:09:52.807Z,28.17
2022-11-28T02:12:25.341Z,30.90
2022-11-28T02:15:01.225Z,30.80
2022-11-28T02:17:35.131Z,35.43
2022-11-28T02:20:33.295Z,26.70
2022-11-28T02:23:05.288Z,28.60
2022-11-28T02:25:44.010Z,28.50
2022-11-28T02:28:30.182Z,28.60
2022-11-28T02:31:05.131Z,30.90
2022-11-28T02:33:35.670Z,28.57
2022-11-28T02:36:09.051Z,30.47
2022-11-28T02:38:41.382Z,29.10
2022-11-28T02:49:31.020Z,27.40
2022-11-28T02:52:01.273Z,26.77
2022-11-28T02:54:31.784Z,27.27
2022-11-28T02:56:59.481Z,27.07
2022-11-28T02:59:32.424Z,30.97
2022-11-28T03:02:00.694Z,32.43
2022-11-28T03:04:32.791Z,29.37
2022-11-28T03:07:06.324Z,29.03
2022-11-28T03:09:48.809Z,27.27
2022-11-28T03:12:20.967Z,27.87
2022-11-28T03:14:53.046Z,24.83
2022-11-28T03:17:25.670Z,29.57
2022-11-28T03:19:58.996Z,29.03
2022-11-28T03:22:28.824Z,31.20
2022-11-28T03:25:01.577Z,30.33
2022-11-28T03:27:33.142Z,30.60
2022-11-28T03:30:03.477Z,30.17
2022-11-28T03:32:33.859Z,35.60
2022-11-28T03:37:57.170Z,29.20
2022-11-28T03:40:28.358Z,33.90
2022-11-28T03:42:59.182Z,31.00
2022-11-28T03:45:28.944Z,31.87
2022-11-28T03:47:58.818Z,28.43
2022-11-28T03:50:30.734Z,29.90
2022-11-28T03:53:02.308Z,32.33
2022-11-28T03:55:33.913Z,30.40
2022-11-28T03:58:05.898Z,36.30
2022-11-28T04:00:34.878Z,28.60
2022-11-28T04:03:07.806Z,34.03
2022-11-28T04:05:41.399Z,30.83
2022-11-28T04:08:13.340Z,31.60
2022-11-28T04:10:43.234Z,28.40
2022-11-28T04:13:16.506Z,30.03
2022-11-28T04:15:47.383Z,29.30
2022-11-28T04:18:21.615Z,39.33
2022-11-28T04:20:54.041Z,31.90
2022-11-28T04:23:22.629Z,33.67
2022-11-28T04:25:52.646Z,32.50
2022-11-28T04:28:22.935Z,32.30
2022-11-28T04:30:51.837Z,35.80
2022-11-28T04:33:20.689Z,30.30
2022-11-28T04:35:51.631Z,33.03
2022-11-28T04:38:22.079Z,34.83
2022-11-28T04:40:58.014Z,33.73
2022-11-28T04:43:27.678Z,36.10
2022-11-28T04:45:57.389Z,36.37
2022-11-28T04:48:28.644Z,36.67
2022-11-28T04:51:03.667Z,37.53
2022-11-28T04:53:35.474Z,33.63
2022-11-28T04:56:06.332Z,33.17
2022-11-28T04:58:35.960Z,30.47
2022-11-28T05:01:07.750Z,31.47
2022-11-28T05:03:41.126Z,33.00
2022-11-28T05:06:10.312Z,29.60
2022-11-28T05:08:39.294Z,29.03
2022-11-28T05:11:07.158Z,31.33
2022-11-28T05:13:34.957Z,32.93
2022-11-28T05:16:03.343Z,31.73
2022-11-28T05:18:31.118Z,32.97
2022-11-28T05:20:59.807Z,33.33
2022-11-28T05:23:27.421Z,31.97
2022-11-28T05:25:56.417Z,29.17
2022-11-28T05:28:25.166Z,32.33
2022-11-28T05:30:57.447Z,30.40
2022-11-28T05:33:25.637Z,31.47
2022-11-28T05:35:53.450Z,28.40
2022-11-28T05:38:21.380Z,29.20
2022-11-28T05:40:48.998Z,33.00
2022-11-28T05:43:18.203Z,29.60
2022-11-28T05:45:46.376Z,28.90
2022-11-28T05:48:14.587Z,32.13
2022-11-28T05:50:42.513Z,33.50
2022-11-28T05:53:10.649Z,31.80
2022-11-28T05:55:38.753Z,31.20
2022-11-28T05:58:06.593Z,29.00
2022-11-28T06:00:35.669Z,33.13
2022-11-28T06:03:04.636Z,31.00
2022-11-28T06:05:42.668Z,30.27
2022-11-28T06:08:12.021Z,29.50
2022-11-28T06:10:39.617Z,29.53
2022-11-28T06:13:07.545Z,33.13
2022-11-28T06:15:38.513Z,32.17
2022-11-28T06:18:06.400Z,28.83
2022-11-28T06:20:35.572Z,33.90
2022-11-28T06:23:03.444Z,31.10
2022-11-28T06:25:31.027Z,36.23
2022-11-28T06:27:58.878Z,34.83
2022-11-28T06:30:26.782Z,33.93
2022-11-28T06:32:55.745Z,40.40
2022-11-28T06:35:23.312Z,39.87
2022-11-28T06:37:51.298Z,37.37
2022-11-28T06:40:18.989Z,39.70
2022-11-28T06:42:50.294Z,34.90
2022-11-28T06:45:18.143Z,37.53
2022-11-28T06:47:45.780Z,35.37
2022-11-28T06:50:14.928Z,38.37
2022-11-28T06:52:42.769Z,38.87
2022-11-28T06:55:12.027Z,36.17
2022-11-28T06:57:39.569Z,38.43
2022-11-28T07:00:08.420Z,39.50
2022-11-28T07:02:36.044Z,40.97
2022-11-28T07:05:04.530Z,38.47
2022-11-28T07:07:38.493Z,35.80
2022-11-28T07:10:17.929Z,45.70
2022-11-28T07:12:46.042Z,44.17
2022-11-28T07:15:13.853Z,36.93
2022-11-28T07:17:41.684Z,41.90
2022-11-28T07:20:10.378Z,36.50
2022-11-28T07:22:39.447Z,39.40
2022-11-28T07:25:07.994Z,39.60
2022-11-28T07:27:35.659Z,41.23
2022-11-28T07:30:03.234Z,37.20
2022-11-28T07:32:31.653Z,38.53
2022-11-28T07:35:00.584Z,39.10
2022-11-28T07:37:28.135Z,41.50
2022-11-28T07:39:57.509Z,42.33
2022-11-28T07:42:25.688Z,38.23
2022-11-28T07:45:04.212Z,41.37
2022-11-28T07:47:32.634Z,43.97
2022-11-28T07:50:00.221Z,45.43
2022-11-28T07:52:28.045Z,36.03
2022-11-28T07:54:57.056Z,38.23
2022-11-28T07:57:24.654Z,40.73
2022-11-28T07:59:52.261Z,38.20
2022-11-28T08:02:20.125Z,41.17
2022-11-28T08:04:51.686Z,38.80
2022-11-28T08:07:22.913Z,40.80
2022-11-28T08:09:50.604Z,41.27
2022-11-28T08:12:19.635Z,35.70
2022-11-28T08:14:48.717Z,34.43
2022-11-28T08:17:16.544Z,40.30
2022-11-28T08:19:44.142Z,34.13
2022-11-28T08:22:12.396Z,37.73
2022-11-28T08:24:40.690Z,36.90
2022-11-28T08:27:10.286Z,39.50
2022-11-28T08:29:39.608Z,40.07
2022-11-28T08:32:07.414Z,38.23
2022-11-28T08:34:34.981Z,39.53
2022-11-28T08:37:02.977Z,33.73
2022-11-28T08:39:30.531Z,35.97
2022-11-28T08:41:59.477Z,35.80
2022-11-28T08:44:30.355Z,36.13
2022-11-28T08:47:00.402Z,34.57
2022-11-28T08:49:29.674Z,42.90
2022-11-28T08:51:57.281Z,33.97
2022-11-28T08:54:24.871Z,40.43
2022-11-28T08:56:52.658Z,36.27
2022-11-28T08:59:20.415Z,43.70
2022-11-28T09:01:48.274Z,35.93
2022-11-28T09:04:17.405Z,37.43
2022-11-28T09:06:45.158Z,36.97
2022-11-28T09:09:13.769Z,39.23
2022-11-28T09:11:41.635Z,38.00
2022-11-28T09:14:09.506Z,35.87
2022-11-28T09:16:38.501Z,37.37
2022-11-28T09:19:09.190Z,35.23
2022-11-28T09:21:43.207Z,37.17
2022-11-28T09:24:13.968Z,38.40
2022-11-28T09:26:41.791Z,35.50
2022-11-28T09:29:09.378Z,37.57
2022-11-28T09:31:37.317Z,34.10
2022-11-28T09:34:04.999Z,37.40
2022-11-28T09:36:33.025Z,33.53
2022-11-28T09:39:02.441Z,41.20
2022-11-28T09:41:33.745Z,35.57
2022-11-28T09:44:04.254Z,34.63
2022-11-28T09:46:33.802Z,35.70
2022-11-28T09:49:02.521Z,35.47
2022-11-28T09:51:32.746Z,35.77
2022-11-28T09:54:04.746Z,39.20
2022-11-28T09:56:32.854Z,35.47
2022-11-28T09:59:03.547Z,37.50
2022-11-28T10:01:34.829Z,36.43
2022-11-28T10:04:05.826Z,34.93
2022-11-28T10:06:37.057Z,42.17
2022-11-28T10:09:19.575Z,34.70
2022-11-28T10:11:58.982Z,34.60
2022-11-28T10:14:39.530Z,41.57
2022-11-28T10:17:14.094Z,35.90
2022-11-28T10:19:54.234Z,38.43
2022-11-28T10:22:27.616Z,42.07
2022-11-28T10:24:57.423Z,40.03
2022-11-28T10:27:30.525Z,43.60
2022-11-28T10:30:01.263Z,38.10
2022-11-28T10:32:32.410Z,39.03
2022-11-28T10:35:02.034Z,39.53
2022-11-28T10:37:30.938Z,39.50
2022-11-28T10:40:04.073Z,40.90
2022-11-28T10:42:36.752Z,36.03
2022-11-28T10:45:13.113Z,40.43
2022-11-28T10:47:48.721Z,36.90
2022-11-28T10:50:21.057Z,34.97
2022-11-28T10:52:51.399Z,45.00
2022-11-28T10:55:24.036Z,34.57
2022-11-28T10:57:57.194Z,36.27
2022-11-28T11:00:45.840Z,39.10
2022-11-28T11:03:15.312Z,38.97
2022-11-28T11:05:43.237Z,44.03
2022-11-28T11:08:13.973Z,40.03
2022-11-28T11:10:43.685Z,39.80
2022-11-28T11:13:15.612Z,38.47
2022-11-28T11:15:43.514Z,36.20
2022-11-28T11:21:09.533Z,30.30
2022-11-28T11:23:38.601Z,39.10
2022-11-28T11:26:10.035Z,42.53
2022-11-28T11:28:42.734Z,39.57
2022-11-28T11:31:21.841Z,43.00
2022-11-28T11:33:51.333Z,36.33
2022-11-28T11:36:24.283Z,37.63
2022-11-28T11:38:53.422Z,36.87
2022-11-28T11:41:27.188Z,34.83
2022-11-28T11:43:56.409Z,35.67
2022-11-28T11:46:24.295Z,35.30
2022-11-28T11:48:53.204Z,36.27
2022-11-28T11:51:25.259Z,38.10
2022-11-28T11:54:04.591Z,37.47
2022-11-28T11:56:34.750Z,32.50
2022-11-28T11:59:06.333Z,35.13
2022-11-28T12:01:34.722Z,33.40
2022-11-28T12:04:23.815Z,36.70
2022-11-28T12:06:56.152Z,32.33
2022-11-28T12:09:28.830Z,35.13
2022-11-28T12:12:00.244Z,37.13
2022-11-28T12:14:31.190Z,31.03
2022-11-28T12:17:25.937Z,34.50
2022-11-28T12:20:01.697Z,35.80
2022-11-28T12:22:36.289Z,34.70
2022-11-28T12:25:11.328Z,35.90
2022-11-28T12:27:53.174Z,37.00
2022-11-28T12:30:26.452Z,34.40
2022-11-28T12:32:58.849Z,40.20
2022-11-28T12:35:32.694Z,35.40
2022-11-28T12:38:12.171Z,29.07
2022-11-28T12:40:43.781Z,31.90
2022-11-28T12:43:20.781Z,35.50
2022-11-28T12:45:55.687Z,35.80
2022-11-28T12:48:33.661Z,38.80
2022-11-28T12:51:03.930Z,32.40
2022-11-28T12:53:42.352Z,37.80
2022-11-28T12:56:19.263Z,38.53
2022-11-28T12:58:48.576Z,34.87
2022-11-28T13:01:26.545Z,38.83
2022-11-28T13:04:01.099Z,36.90
2022-11-28T13:06:35.207Z,50.80
2022-11-28T13:09:15.710Z,39.30
2022-11-28T13:11:51.125Z,42.40
2022-11-28T13:14:23.995Z,42.10
2022-11-28T13:16:53.980Z,33.90
2022-11-28T13:19:35.196Z,38.47
2022-11-28T13:22:08.679Z,36.87
2022-11-28T13:24:40.149Z,38.50
2022-11-28T13:27:10.410Z,37.37
2022-11-28T13:29:41.317Z,38.27
2022-11-28T13:32:13.661Z,40.43
2022-11-28T13:34:42.016Z,49.83
2022-11-28T13:40:03.795Z,39.80
2022-11-28T13:43:02.464Z,38.20
2022-11-28T13:45:32.750Z,41.67
2022-11-28T13:48:32.286Z,36.80
2022-11-28T13:51:20.730Z,39.70
2022-11-28T13:54:11.665Z,42.13
2022-11-28T13:56:40.938Z,40.30
2022-11-28T13:59:15.348Z,36.23
2022-11-28T14:01:44.626Z,40.37
2022-11-28T14:04:14.213Z,42.33
2022-11-28T14:06:44.566Z,40.60
2022-11-28T14:09:21.402Z,40.03
2022-11-28T14:11:59.868Z,40.90
2022-11-28T14:14:38.140Z,39.00
2022-11-28T14:17:12.874Z,40.40
2022-11-28T14:19:47.118Z,45.07
2022-11-28T14:22:22.156Z,49.00
2022-11-28T14:24:55.554Z,51.77
2022-11-28T14:27:26.376Z,44.13
2022-11-28T14:29:55.769Z,44.33
2022-11-28T14:32:31.248Z,46.03
2022-11-28T14:35:00.831Z,49.23
2022-11-28T14:37:52.963Z,51.53
2022-11-28T14:40:39.761Z,48.83
2022-11-28T14:43:26.093Z,48.43
2022-11-28T14:46:13.953Z,46.70
2022-11-28T14:48:42.545Z,58.37
2022-11-28T14:51:10.210Z,59.20
2022-11-28T14:53:44.601Z,56.07
2022-11-28T14:56:23.935Z,52.70
2022-11-28T14:58:56.346Z,50.90
2022-11-28T15:01:31.734Z,51.80
2022-11-28T15:04:04.782Z,58.93
2022-11-28T15:06:35.478Z,55.93
2022-11-28T15:09:07.324Z,57.03
2022-11-28T15:11:58.399Z,53.73
2022-11-28T15:14:29.346Z,51.87
2022-11-28T15:17:02.781Z,54.73
2022-11-28T15:19:33.156Z,53.50
2022-11-28T15:22:01.721Z,51.90
2022-11-28T15:24:35.045Z,53.17
2022-11-28T15:27:19.512Z,62.67
2022-11-28T15:29:55.137Z,55.93
2022-11-28T15:32:23.584Z,57.07
2022-11-28T15:34:53.209Z,56.03
2022-11-28T15:37:21.577Z,59.87
2022-11-28T15:39:50.224Z,58.40
2022-11-28T15:42:21.340Z,52.77
2022-11-28T15:44:52.471Z,56.10
2022-11-28T15:47:22.426Z,56.13
2022-11-28T15:50:00.265Z,55.33
2022-11-28T15:52:28.565Z,53.93
2022-11-28T15:54:56.134Z,56.07
2022-11-28T15:57:25.118Z,58.80
2022-11-28T15:59:53.181Z,53.10
2022-11-28T16:02:26.555Z,57.00
2022-11-28T16:04:58.217Z,55.67
2022-11-28T16:07:26.050Z,61.47
2022-11-28T16:09:59.068Z,56.13
2022-11-28T16:12:27.486Z,57.00
2022-11-28T16:15:01.513Z,62.33
2022-11-28T16:17:31.456Z,57.07
2022-11-28T16:20:00.513Z,53.37
2022-11-28T16:22:34.636Z,60.43
2022-11-28T16:25:12.515Z,58.40
2022-11-28T16:27:41.838Z,54.90
2022-11-28T16:30:24.517Z,61.97
2022-11-28T16:32:54.074Z,62.33
2022-11-28T16:35:26.778Z,64.40
2022-11-28T16:37:54.684Z,64.20
2022-11-28T16:40:23.857Z,64.33
2022-11-28T16:42:55.117Z,64.13
2022-11-28T16:45:25.639Z,61.27
2022-11-28T16:47:56.648Z,60.87
2022-11-28T16:50:24.626Z,71.20
2022-11-28T16:52:53.117Z,66.30
2022-11-28T16:55:40.664Z,62.27
2022-11-28T16:58:18.867Z,62.83
2022-11-28T17:00:50.227Z,65.17
2022-11-28T17:03:39.298Z,70.83
2022-11-28T17:06:13.064Z,70.13
2022-11-28T17:08:41.108Z,62.93
2022-11-28T17:11:08.865Z,65.23
2022-11-28T17:13:36.594Z,68.43
2022-11-28T17:16:04.499Z,62.23
2022-11-28T17:18:32.137Z,65.77
2022-11-28T17:21:00.291Z,69.83
2022-11-28T17:23:29.321Z,73.90
2022-11-28T17:25:56.967Z,66.90
2022-11-28T17:28:29.011Z,66.63
2022-11-28T17:30:56.961Z,68.53
2022-11-28T17:33:24.753Z,73.30
2022-11-28T17:35:53.437Z,73.60
2022-11-28T17:38:21.160Z,68.13
2022-11-28T17:40:50.576Z,69.80
2022-11-28T17:43:19.021Z,71.13
2022-11-28T17:45:47.416Z,74.50
2022-11-28T17:48:16.142Z,69.10
2022-11-28T17:50:44.925Z,74.67
2022-11-28T17:53:13.813Z,74.53
2022-11-28T17:55:42.679Z,70.57
2022-11-28T17:58:16.661Z,74.10
2022-11-28T18:00:45.314Z,75.77
2022-11-28T18:03:13.637Z,81.37
2022-11-28T18:05:43.709Z,73.67
2022-11-28T18:08:12.294Z,72.90
2022-11-28T18:10:39.903Z,85.17
2022-11-28T18:13:09.442Z,84.40
2022-11-28T18:15:42.642Z,76.33
2022-11-28T18:18:10.434Z,73.57
2022-11-28T18:20:38.670Z,80.47
2022-11-28T18:23:11.536Z,76.83
2022-11-28T18:25:42.080Z,77.77
2022-11-28T18:28:13.260Z,76.07
2022-11-28T18:30:45.898Z,81.87
2022-11-28T18:33:13.767Z,71.50
2022-11-28T18:35:41.717Z,81.03
2022-11-28T18:38:12.005Z,86.50
2022-11-28T18:40:39.924Z,83.40
2022-11-28T18:43:07.996Z,79.47
2022-11-28T18:45:36.267Z,83.97
2022-11-28T18:48:05.371Z,76.60
2022-11-28T18:50:35.416Z,75.97
2022-11-28T18:53:03.324Z,78.10
2022-11-28T18:55:30.932Z,81.77
2022-11-28T18:57:59.793Z,81.33
2022-11-28T19:00:27.543Z,80.43
2022-11-28T19:02:55.515Z,78.20
2022-11-28T19:05:25.124Z,81.47
2022-11-28T19:07:53.541Z,80.47
2022-11-28T19:10:21.198Z,71.10
2022-11-28T19:12:49.013Z,72.50
2022-11-28T19:15:17.100Z,74.83
2022-11-28T19:17:44.878Z,81.87
2022-11-28T19:20:14.072Z,72.33
2022-11-28T19:22:43.213Z,75.53
2022-11-28T19:25:11.161Z,80.63
2022-11-28T19:27:38.793Z,81.30
2022-11-28T19:30:07.290Z,78.67
2022-11-28T19:32:36.204Z,76.70
2022-11-28T19:35:04.500Z,70.83
2022-11-28T19:37:32.232Z,73.03
2022-11-28T19:40:03.095Z,72.87
2022-11-28T19:42:31.454Z,76.53
2022-11-28T19:44:59.549Z,69.40
2022-11-28T19:47:27.931Z,76.10
2022-11-28T19:49:55.602Z,68.90
2022-11-28T19:52:23.466Z,78.30
2022-11-28T19:54:51.252Z,80.33
2022-11-28T19:57:20.710Z,73.37
2022-11-28T19:59:48.712Z,72.03
2022-11-28T20:02:21.734Z,76.77
2022-11-28T20:04:49.782Z,79.30
2022-11-28T20:07:17.509Z,76.90
2022-11-28T20:09:45.937Z,71.67
2022-11-28T20:12:13.788Z,69.20
2022-11-28T20:14:43.477Z,69.17
2022-11-28T20:17:12.412Z,76.13
2022-11-28T20:19:40.091Z,78.97
2022-11-28T20:22:07.833Z,69.33
2022-11-28T20:24:35.903Z,72.70
2022-11-28T20:27:04.130Z,73.50
2022-11-28T20:29:33.189Z,67.50
2022-11-28T20:32:03.427Z,69.43
2022-11-28T20:34:31.398Z,70.80
2022-11-28T20:37:00.374Z,78.60
2022-11-28T20:39:29.560Z,73.07
2022-11-28T20:41:57.174Z,71.37
2022-11-28T20:44:25.050Z,68.10
2022-11-28T20:46:53.154Z,78.87
2022-11-28T20:49:22.213Z,65.00
2022-11-28T20:51:50.471Z,64.53
2022-11-28T20:54:18.408Z,71.73
2022-11-28T20:57:13.307Z,63.87
2022-11-28T20:59:34.316Z,76.10
2022-11-28T21:02:01.973Z,79.33
2022-11-28T21:04:31.102Z,78.07
2022-11-28T21:06:59.018Z,90.67
2022-11-28T21:09:26.652Z,68.23
2022-11-28T21:11:58.847Z,69.80
2022-11-28T21:14:28.109Z,68.20
2022-11-28T21:16:56.146Z,64.60
2022-11-28T21:19:24.041Z,64.60
2022-11-28T21:21:53.302Z,69.60
2022-11-28T21:24:21.161Z,67.20
2022-11-28T21:26:53.602Z,76.83
2022-11-28T21:29:23.331Z,70.10
2022-11-28T21:31:51.669Z,68.20
2022-11-28T21:34:19.708Z,66.57
2022-11-28T21:36:48.392Z,71.00
2022-11-28T21:39:22.591Z,69.30
2022-11-28T21:41:52.315Z,68.10
2022-11-28T21:44:20.272Z,72.10
2022-11-28T21:46:47.917Z,67.30
2022-11-28T21:49:15.966Z,73.30
2022-11-28T21:51:44.002Z,63.70
2022-11-28T21:54:12.246Z,67.70
2022-11-28T21:56:42.043Z,66.40
2022-11-28T21:59:10.714Z,70.73
2022-11-28T22:01:40.856Z,63.10
2022-11-28T22:04:11.426Z,67.73
2022-11-28T22:06:40.425Z,62.60
2022-11-28T22:09:09.866Z,66.93
2022-11-28T22:11:41.373Z,69.37
2022-11-28T22:14:09.112Z,67.97
2022-11-28T22:16:37.996Z,74.50
2022-11-28T22:19:11.716Z,64.70
2022-11-28T22:21:56.016Z,71.93
2022-11-28T22:24:27.033Z,67.73
2022-11-28T22:26:57.361Z,68.80
2022-11-28T22:29:25.380Z,65.37
2022-11-28T22:31:54.508Z,67.63
2022-11-28T22:34:23.133Z,66.93
2022-11-28T22:36:50.800Z,67.00
2022-11-28T22:39:20.990Z,69.90
2022-11-28T22:41:49.203Z,84.17
2022-11-28T22:44:18.861Z,87.87
2022-11-28T22:46:47.149Z,92.37
2022-11-28T22:49:14.961Z,98.17
2022-11-28T22:51:43.091Z,99.47
2022-11-28T22:54:13.328Z,101.33
2022-11-28T22:56:41.786Z,96.50
2022-11-28T22:59:12.191Z,103.00
2022-11-28T23:01:41.867Z,107.57
2022-11-28T23:04:10.057Z,115.20
2022-11-28T23:06:38.526Z,107.60
2022-11-28T23:09:07.387Z,112.20
2022-11-28T23:11:36.076Z,117.87
2022-11-28T23:14:05.682Z,106.37
2022-11-28T23:16:34.673Z,105.53
2022-11-28T23:19:05.295Z,106.73
2022-11-28T23:21:34.601Z,101.53
2022-11-28T23:24:02.261Z,99.20
2022-11-28T23:26:31.600Z,101.80
2022-11-28T23:28:59.825Z,102.07
2022-11-28T23:31:29.758Z,105.00
2022-11-28T23:33:57.937Z,107.90
2022-11-28T23:36:28.414Z,101.03
2022-11-28T23:38:57.662Z,93.13
2022-11-28T23:41:25.518Z,92.30
2022-11-28T23:43:53.942Z,83.00
2022-11-28T23:46:22.642Z,93.30
2022-11-28T23:48:50.769Z,88.90
2022-11-28T23:51:18.965Z,93.80
2022-11-28T23:53:48.602Z,82.63
2022-11-28T23:56:17.318Z,88.30
2022-11-28T23:58:45.271Z,92.60
